Terminal Aerodrome Forecast
Issued by NWS Wichita, KS

Home | Current Version | Previous Version | Text Only | Print | Product List | Glossary On
Versions: 1 2 3 4 5 6 7 8 9 10 11 12 13 14 15 16 17 18
000
FTUS43 KICT 290522
TAFICT
TAF
KICT 290522Z 2906/3006 01006KT P6SM SCT035
      TEMPO 2906/2910 BKN030
     FM291000 36007KT P6SM SCT025
     FM291700 36010KT P6SM SCT035
     FM300000 01006KT P6SM SKC=

USA.gov is the U.S. government's official web portal to all federal, state and local government web resources and services.